Time;durP1;ratioP1;P1;durP2;ratioP2;P2;SDS_P1;SDS_P2;PMS_P1;PMS_P2;Temp;Humidity;BMP_temperature;BMP_pressure;BME280_temperature;BME280_humidity;BME280_pressure;Samples;Min_cycle;Max_cycle;Signal;HPM_P1;HPM_P2
2023/07/24 00:00:23;;;;;;;9.63;4.30;;;;;;;27.42;57.05;99077.38;4996786;28;20180;-84
2023/07/24 00:02:48;;;;;;;10.35;4.60;;;;;;;27.48;57.61;99073.94;4979579;28;20182;-84
2023/07/24 00:05:13;;;;;;;7.30;3.80;;;;;;;27.52;57.79;99074.38;4995587;28;20184;-85
2023/07/24 00:07:39;;;;;;;11.32;4.88;;;;;;;27.53;58.30;99070.66;4996622;28;20539;-84
2023/07/24 00:10:05;;;;;;;11.93;5.03;;;;;;;27.57;59.08;99069.28;4996854;28;20610;-84
2023/07/24 00:12:30;;;;;;;11.30;5.60;;;;;;;27.55;59.67;99071.31;4996483;28;20211;-84
2023/07/24 00:14:56;;;;;;;11.70;5.13;;;;;;;27.42;59.58;99069.31;4996541;28;20267;-84
2023/07/24 00:17:21;;;;;;;8.52;4.82;;;;;;;27.34;60.00;99070.22;4996347;28;20179;-84
2023/07/24 00:19:46;;;;;;;8.77;4.65;;;;;;;27.22;61.03;99076.28;4996393;28;20190;-84
2023/07/24 00:22:12;;;;;;;9.40;4.80;;;;;;;27.19;61.85;99068.56;4979193;28;20168;-84
2023/07/24 00:24:37;;;;;;;8.13;5.03;;;;;;;27.19;62.26;99074.78;4996203;28;20554;-84
2023/07/24 00:27:03;;;;;;;7.07;4.25;;;;;;;27.18;62.10;99074.97;4989194;28;20622;-84
2023/07/24 00:29:28;;;;;;;10.10;4.40;;;;;;;27.13;62.59;99067.47;4976712;28;20654;-84
2023/07/24 00:31:54;;;;;;;11.85;5.30;;;;;;;26.96;64.54;99074.06;4976743;28;20180;-84
2023/07/24 00:34:20;;;;;;;9.52;4.95;;;;;;;26.89;64.63;99069.63;4976991;28;20655;-84
2023/07/24 00:36:45;;;;;;;7.35;4.38;;;;;;;26.62;66.45;99068.38;4989721;28;20188;-84
2023/07/24 00:39:10;;;;;;;11.18;5.88;;;;;;;26.77;66.02;99069.25;4995998;28;20188;-84
2023/07/24 00:41:36;;;;;;;11.32;5.38;;;;;;;26.52;68.58;99071.31;4996289;28;20184;-84
2023/07/24 00:44:01;;;;;;;13.68;6.55;;;;;;;26.78;67.14;99070.94;4995970;28;20179;-84
2023/07/24 00:46:31;;;;;;;17.27;7.32;;;;;;;27.00;67.14;99075.34;4994968;28;20245;-84
2023/07/24 00:48:58;;;;;;;21.15;9.63;;;;;;;26.91;67.67;99076.50;4996165;28;20195;-84
2023/07/24 00:51:44;;;;;;;21.67;9.38;;;;;;;26.94;67.82;99069.91;4995801;28;20199;-84
2023/07/24 00:54:11;;;;;;;23.95;11.05;;;;;;;27.02;67.46;99067.13;4995305;28;20277;-84
2023/07/24 00:56:37;;;;;;;25.80;10.88;;;;;;;27.01;67.62;99060.91;4995722;28;20171;-84
2023/07/24 00:59:03;;;;;;;31.05;11.35;;;;;;;26.93;68.43;99073.59;4995867;28;20542;-84
2023/07/24 01:01:28;;;;;;;28.85;11.70;;;;;;;26.79;69.15;99080.66;4995602;28;20254;-84
2023/07/24 01:03:56;;;;;;;30.40;13.13;;;;;;;26.98;69.73;99077.41;4995619;28;20172;-84
2023/07/24 01:06:21;;;;;;;24.25;10.65;;;;;;;26.89;69.40;99078.50;4994489;28;20183;-84
2023/07/24 01:08:47;;;;;;;29.55;11.25;;;;;;;26.95;69.05;99076.94;4995662;28;20266;-84
2023/07/24 01:11:19;;;;;;;31.40;11.95;;;;;;;27.04;68.68;99071.28;4994504;28;20668;-84
2023/07/24 01:13:55;;;;;;;26.90;11.53;;;;;;;27.02;69.26;99065.25;4995362;28;20231;-84
2023/07/24 01:16:22;;;;;;;31.25;12.95;;;;;;;26.97;69.37;99072.19;4994390;28;20262;-84
2023/07/24 01:18:50;;;;;;;40.30;13.45;;;;;;;26.82;69.98;99061.47;4978078;28;20271;-84
2023/07/24 01:21:24;;;;;;;29.80;13.38;;;;;;;26.78;70.46;99063.66;4978085;28;20187;-84
2023/07/24 01:24:31;;;;;;;31.30;12.85;;;;;;;26.62;71.62;99071.06;4995265;28;20160;-84
2023/07/24 01:26:57;;;;;;;36.95;14.40;;;;;;;26.52;72.10;99075.88;4982156;28;20345;-84
2023/07/24 01:29:23;;;;;;;44.17;14.57;;;;;;;26.71;71.51;99080.69;4994915;28;20253;-84
2023/07/24 01:31:48;;;;;;;34.35;13.88;;;;;;;26.67;72.49;99074.03;4995246;28;20176;-84
2023/07/24 01:34:13;;;;;;;34.35;14.20;;;;;;;26.64;72.74;99079.78;4994863;28;20202;-84
2023/07/24 01:36:39;;;;;;;32.13;14.53;;;;;;;26.83;71.24;99073.91;4994945;28;20195;-84
2023/07/24 01:39:05;;;;;;;40.72;15.00;;;;;;;26.97;70.96;99081.09;4995502;28;20176;-84
2023/07/24 01:41:31;;;;;;;37.65;15.43;;;;;;;27.07;70.41;99080.84;4994784;28;20262;-84
2023/07/24 01:43:59;;;;;;;41.15;16.50;;;;;;;27.09;69.99;99076.94;4977770;28;20258;-84
2023/07/24 01:46:24;;;;;;;40.25;15.73;;;;;;;27.03;70.83;99080.38;4977653;28;20211;-84
2023/07/24 01:48:50;;;;;;;41.13;16.13;;;;;;;27.11;70.80;99076.75;4994609;28;20226;-84
2023/07/24 01:51:15;;;;;;;42.63;15.93;;;;;;;27.21;70.16;99082.66;4994709;28;20622;-84
2023/07/24 01:53:41;;;;;;;33.42;14.63;;;;;;;27.24;69.58;99080.44;4994527;28;20204;-84
2023/07/24 01:56:07;;;;;;;36.17;14.00;;;;;;;27.07;70.45;99087.03;4994609;28;20616;-84
2023/07/24 01:58:32;;;;;;;26.58;13.25;;;;;;;26.94;71.57;99086.84;4994572;28;20194;-84
2023/07/24 02:00:57;;;;;;;29.92;13.10;;;;;;;26.76;72.11;99084.50;4994707;28;20187;-84
2023/07/24 02:03:23;;;;;;;31.10;13.30;;;;;;;26.75;72.29;99088.25;4977307;28;20629;-84
2023/07/24 02:05:51;;;;;;;34.40;14.27;;;;;;;26.97;71.14;99096.41;4994502;28;20218;-84
2023/07/24 02:08:17;;;;;;;31.48;13.82;;;;;;;27.06;70.54;99096.16;4994441;28;20214;-84
2023/07/24 02:10:42;;;;;;;35.63;14.95;;;;;;;27.09;70.71;99101.16;4994379;28;20208;-84
2023/07/24 02:13:09;;;;;;;36.28;14.98;;;;;;;27.13;70.52;99091.69;4993287;28;20666;-84
2023/07/24 02:15:34;;;;;;;33.58;14.25;;;;;;;27.22;69.93;99092.44;4994312;28;20254;-84
2023/07/24 02:18:00;;;;;;;36.15;15.20;;;;;;;27.23;70.30;99089.53;4976989;28;20187;-84
2023/07/24 02:20:25;;;;;;;33.90;14.90;;;;;;;27.26;70.40;99093.72;4993248;28;20184;-84
2023/07/24 02:22:51;;;;;;;37.88;15.45;;;;;;;27.28;69.93;99089.81;4994084;28;20189;-84
2023/07/24 02:25:16;;;;;;;33.33;14.27;;;;;;;27.33;69.80;99089.25;4994440;28;20540;-84
2023/07/24 02:27:42;;;;;;;40.50;17.27;;;;;;;27.37;69.37;99087.84;4993060;28;20346;-84
2023/07/24 02:30:07;;;;;;;31.60;14.57;;;;;;;27.38;69.44;99084.16;4994044;28;20222;-84
2023/07/24 02:32:33;;;;;;;36.55;14.00;;;;;;;27.37;69.59;99086.00;4993908;28;20200;-84
2023/07/24 02:34:58;;;;;;;34.00;15.23;;;;;;;27.34;69.60;99085.53;4992981;28;20179;-84
2023/07/24 02:37:24;;;;;;;43.05;16.08;;;;;;;27.38;69.75;99090.34;4993867;28;20176;-84
2023/07/24 02:39:49;;;;;;;38.38;16.35;;;;;;;27.51;68.51;99094.25;4994041;28;20187;-84
2023/07/24 02:42:14;;;;;;;39.20;16.48;;;;;;;27.56;68.11;99089.16;4993918;28;20651;-84
2023/07/24 02:44:40;;;;;;;37.80;16.20;;;;;;;27.61;67.90;99090.25;4993877;28;20668;-84
2023/07/24 02:47:05;;;;;;;38.42;17.83;;;;;;;27.66;67.59;99084.28;4993890;28;20584;-84
2023/07/24 02:49:31;;;;;;;41.22;17.10;;;;;;;27.66;67.30;99086.97;4992839;28;20278;-84
2023/07/24 02:51:57;;;;;;;35.90;17.10;;;;;;;27.44;68.27;99083.41;4976639;28;20184;-84
2023/07/24 02:54:22;;;;;;;37.70;16.88;;;;;;;27.40;68.44;99093.72;4993819;28;20646;-84
2023/07/24 02:56:48;;;;;;;39.05;16.70;;;;;;;27.36;68.51;99086.16;4994092;28;20171;-84
2023/07/24 02:59:13;;;;;;;42.42;17.27;;;;;;;27.39;68.29;99088.50;4994042;28;20176;-84
2023/07/24 03:01:38;;;;;;;46.83;17.67;;;;;;;27.46;67.91;99089.44;4992739;28;20176;-84
2023/07/24 03:04:05;;;;;;;57.95;21.60;;;;;;;27.50;67.66;99096.13;4993895;28;20638;-84
2023/07/24 03:06:31;;;;;;;64.53;23.67;;;;;;;27.45;68.22;99093.16;4993692;28;20187;-84
2023/07/24 03:08:57;;;;;;;67.18;23.23;;;;;;;27.41;68.47;99090.00;4980439;28;20180;-84
2023/07/24 03:11:22;;;;;;;64.10;23.05;;;;;;;27.36;68.90;99092.41;4991422;28;20206;-84
2023/07/24 03:13:47;;;;;;;64.40;22.60;;;;;;;27.33;68.96;99090.06;4997603;28;20238;-84
2023/07/24 03:16:13;;;;;;;73.30;23.95;;;;;;;27.30;69.14;99093.16;4997562;28;20622;-84
2023/07/24 03:18:38;;;;;;;72.00;23.60;;;;;;;27.29;68.74;99094.19;4980346;28;20230;-84
2023/07/24 03:21:04;;;;;;;71.65;23.83;;;;;;;27.31;68.85;99091.28;4997374;28;20534;-84
2023/07/24 03:23:29;;;;;;;68.65;23.40;;;;;;;27.40;68.88;99093.72;4997523;28;20183;-84
2023/07/24 03:25:54;;;;;;;77.90;24.48;;;;;;;27.45;68.14;99087.78;4997444;28;20224;-84
2023/07/24 03:28:20;;;;;;;74.60;23.35;;;;;;;27.35;68.73;99085.34;4996297;28;20635;-84
2023/07/24 03:30:45;;;;;;;85.72;25.35;;;;;;;27.34;68.90;99089.06;4996355;28;20176;-84
2023/07/24 03:33:12;;;;;;;89.50;24.25;;;;;;;27.36;68.48;99080.78;4996109;28;20200;-84
2023/07/24 03:35:38;;;;;;;98.55;26.88;;;;;;;27.39;68.54;99075.03;4980134;28;20749;-84
2023/07/24 03:38:04;;;;;;;103.65;26.42;;;;;;;27.44;68.26;99073.47;4997234;28;20188;-84
2023/07/24 03:40:29;;;;;;;90.85;25.35;;;;;;;27.44;68.11;99068.09;4997144;28;20254;-84
2023/07/24 03:42:54;;;;;;;96.13;26.20;;;;;;;27.45;68.24;99077.00;4997128;28;20258;-84
2023/07/24 03:45:20;;;;;;;107.70;28.55;;;;;;;27.44;67.89;99073.47;4997105;28;20250;-84
2023/07/24 03:47:46;;;;;;;97.03;27.55;;;;;;;27.50;67.64;99082.66;4997065;28;20263;-84
2023/07/24 03:50:12;;;;;;;91.97;24.30;;;;;;;27.49;67.84;99080.16;4996951;28;20614;-84
2023/07/24 03:52:37;;;;;;;91.20;26.23;;;;;;;27.42;68.19;99080.91;4979621;28;20211;-84
2023/07/24 03:55:03;;;;;;;86.00;26.25;;;;;;;27.52;68.10;99082.44;4996926;28;20207;-84
2023/07/24 03:57:29;;;;;;;91.38;24.92;;;;;;;27.57;67.50;99078.16;4997398;28;20283;-84
2023/07/24 03:59:54;;;;;;;96.78;26.63;;;;;;;27.59;67.14;99078.00;4996822;28;20653;-84
2023/07/24 04:02:19;;;;;;;104.60;27.70;;;;;;;27.65;67.26;99074.53;4996572;28;20242;-84
2023/07/24 04:04:45;;;;;;;99.88;25.83;;;;;;;27.66;66.69;99079.72;4995551;28;20206;-84
2023/07/24 04:07:10;;;;;;;103.32;24.75;;;;;;;27.59;67.24;99076.13;4996649;28;20207;-84
2023/07/24 04:09:35;;;;;;;87.68;23.60;;;;;;;27.66;66.68;99081.59;4979332;28;20204;-84
2023/07/24 04:12:01;;;;;;;104.90;26.35;;;;;;;27.57;66.94;99088.13;4996480;28;20550;-84
2023/07/24 04:14:26;;;;;;;126.90;26.73;;;;;;;27.46;67.36;99085.91;4995497;28;20194;-84
2023/07/24 04:16:52;;;;;;;120.57;27.65;;;;;;;27.45;67.79;99085.06;4993865;28;20188;-84
2023/07/24 04:19:17;;;;;;;134.63;28.83;;;;;;;27.39;68.16;99086.66;4976828;28;20188;-84
2023/07/24 04:21:43;;;;;;;121.80;28.58;;;;;;;27.35;68.39;99088.06;4974266;28;20289;-84
2023/07/24 04:24:08;;;;;;;118.15;26.75;;;;;;;27.32;68.58;99090.28;4976925;28;20286;-84
2023/07/24 04:26:33;;;;;;;132.70;28.92;;;;;;;27.37;68.11;99096.75;4988180;28;20198;-84
2023/07/24 04:28:59;;;;;;;119.78;28.10;;;;;;;27.40;68.19;99088.34;4996322;28;20192;-84
2023/07/24 04:31:27;;;;;;;124.90;30.70;;;;;;;27.45;67.75;99090.47;4995082;28;20214;-84
2023/07/24 04:34:09;;;;;;;123.55;26.55;;;;;;;27.39;68.04;99092.06;4978969;28;20243;-84
2023/07/24 04:36:34;;;;;;;111.82;28.02;;;;;;;27.32;69.11;99096.50;4978435;28;20206;-86
2023/07/24 04:39:00;;;;;;;121.82;26.58;;;;;;;27.31;69.01;99100.19;4995903;28;20184;-87
2023/07/24 04:41:25;;;;;;;117.68;26.40;;;;;;;27.35;68.98;99096.13;4996154;28;20168;-87
2023/07/24 04:43:51;;;;;;;111.88;26.63;;;;;;;27.38;68.60;99101.09;4978869;28;20622;-87
2023/07/24 04:46:16;;;;;;;115.15;28.75;;;;;;;27.17;69.49;99109.16;4996202;28;20262;-87
2023/07/24 04:48:41;;;;;;;115.75;27.52;;;;;;;27.29;69.05;99110.31;4996059;28;20562;-87
2023/07/24 04:51:07;;;;;;;104.43;29.83;;;;;;;27.38;68.53;99119.94;4981970;28;20681;-87
2023/07/24 04:53:32;;;;;;;112.93;28.77;;;;;;;27.48;68.22;99110.78;4977024;28;20215;-87
2023/07/24 04:55:58;;;;;;;121.55;27.52;;;;;;;27.49;68.09;99117.84;4995322;28;20171;-87
2023/07/24 04:58:24;;;;;;;118.07;27.95;;;;;;;27.41;68.69;99114.22;4995721;28;20180;-87
2023/07/24 05:00:49;;;;;;;108.85;27.27;;;;;;;27.44;68.49;99116.56;4995674;28;20206;-87
2023/07/24 05:03:17;;;;;;;101.20;26.27;;;;;;;27.51;68.53;99113.94;4995574;28;20172;-86
2023/07/24 05:05:42;;;;;;;113.25;28.08;;;;;;;27.46;68.22;99119.06;4996436;28;20187;-87
2023/07/24 05:08:07;;;;;;;109.00;29.25;;;;;;;27.26;69.23;99129.53;4994442;28;20179;-86
2023/07/24 05:10:36;;;;;;;132.45;33.28;;;;;;;27.05;70.89;99120.53;4995462;28;20614;-86
2023/07/24 05:13:02;;;;;;;125.28;33.33;;;;;;;27.19;70.40;99128.63;4978247;28;20226;-86
2023/07/24 05:15:27;;;;;;;142.50;33.38;;;;;;;27.13;70.38;99129.34;4995365;28;20540;-87
2023/07/24 05:17:52;;;;;;;127.38;32.35;;;;;;;27.20;70.21;99130.28;4995595;28;20201;-86
2023/07/24 05:20:18;;;;;;;142.65;32.60;;;;;;;27.36;69.72;99122.00;4994328;28;20637;-87
2023/07/24 05:22:43;;;;;;;144.75;32.42;;;;;;;27.44;69.32;99126.47;4995251;28;20270;-87
2023/07/24 05:25:09;;;;;;;148.63;35.92;;;;;;;27.62;68.60;99136.88;4978066;28;20180;-87
2023/07/24 05:27:35;;;;;;;143.13;34.45;;;;;;;27.56;68.93;99140.31;4993950;28;20597;-87
2023/07/24 05:30:01;;;;;;;135.90;32.00;;;;;;;27.50;69.39;99141.06;4995486;28;20661;-87
2023/07/24 05:32:26;;;;;;;125.10;35.22;;;;;;;27.58;69.21;99130.19;4994659;28;20283;-87
2023/07/24 05:34:51;;;;;;;139.07;32.95;;;;;;;27.74;68.85;99138.03;4995002;28;20193;-87
2023/07/24 05:37:17;;;;;;;111.80;30.33;;;;;;;27.52;68.68;99134.44;4994990;28;20610;-86
2023/07/24 05:39:42;;;;;;;125.07;31.90;;;;;;;27.57;69.16;99142.00;4994860;28;20267;-86
2023/07/24 05:42:07;;;;;;;137.32;33.25;;;;;;;27.57;69.01;99131.22;4994575;28;20258;-86
2023/07/24 05:44:35;;;;;;;143.93;33.97;;;;;;;27.62;69.21;99142.25;4992783;28;20630;-86
2023/07/24 05:47:01;;;;;;;105.97;28.35;;;;;;;27.69;68.45;99148.53;4992811;28;20203;-86
2023/07/24 05:49:26;;;;;;;122.63;32.25;;;;;;;27.83;67.86;99137.72;4992779;28;20199;-86
2023/07/24 05:51:52;;;;;;;111.65;29.98;;;;;;;27.85;68.00;99148.31;4992720;28;20183;-86
2023/07/24 05:54:18;;;;;;;115.05;31.00;;;;;;;27.82;68.75;99141.47;4992420;28;20183;-86
2023/07/24 05:56:43;;;;;;;125.45;32.85;;;;;;;27.82;68.23;99149.53;4975568;28;20249;-86
2023/07/24 05:59:08;;;;;;;114.75;29.10;;;;;;;27.54;69.70;99153.13;4994522;28;20179;-87
2023/07/24 06:01:34;;;;;;;92.63;27.73;;;;;;;27.51;69.88;99148.13;4993608;28;20619;-86
2023/07/24 06:03:59;;;;;;;97.38;26.73;;;;;;;27.49;70.61;99145.59;4988813;28;20177;-87
2023/07/24 06:06:25;;;;;;;88.35;26.80;;;;;;;27.65;69.81;99139.16;4975259;28;20180;-86
2023/07/24 06:08:51;;;;;;;93.72;25.27;;;;;;;27.79;69.62;99141.00;4974292;28;20262;-86
2023/07/24 06:11:16;;;;;;;86.53;26.50;;;;;;;27.96;68.12;99137.06;4974045;28;20176;-87
2023/07/24 06:13:42;;;;;;;86.80;26.48;;;;;;;27.88;68.73;99146.06;4977192;28;20208;-87
2023/07/24 06:16:07;;;;;;;96.82;27.92;;;;;;;27.93;68.76;99142.81;4994333;28;20539;-87
2023/07/24 06:18:34;;;;;;;93.35;27.73;;;;;;;28.18;67.15;99135.22;4977122;28;20629;-87
2023/07/24 06:20:59;;;;;;;91.72;26.05;;;;;;;28.31;66.89;99125.41;4994255;28;20186;-87
2023/07/24 06:23:24;;;;;;;97.63;27.38;;;;;;;27.99;68.26;99131.25;4994422;28;20167;-87
2023/07/24 06:25:51;;;;;;;93.65;25.10;;;;;;;28.17;67.14;99130.88;4994028;28;20561;-87
2023/07/24 06:28:17;;;;;;;105.00;26.58;;;;;;;28.39;66.48;99129.81;4994194;28;20203;-87
2023/07/24 06:30:42;;;;;;;93.57;27.52;;;;;;;28.41;66.49;99135.84;4993942;28;20176;-87
2023/07/24 06:33:07;;;;;;;83.40;23.90;;;;;;;28.24;68.15;99129.06;4976889;28;20209;-87
2023/07/24 06:35:33;;;;;;;98.13;25.98;;;;;;;28.23;67.27;99120.13;4993974;28;20719;-87
2023/07/24 06:37:58;;;;;;;78.93;23.67;;;;;;;27.97;68.49;99127.94;4993995;28;20172;-87
2023/07/24 06:40:24;;;;;;;88.68;25.42;;;;;;;28.09;68.08;99125.59;4976744;28;20176;-87
2023/07/24 06:42:49;;;;;;;70.82;23.92;;;;;;;28.48;66.42;99126.81;4994082;28;20551;-87
2023/07/24 06:45:14;;;;;;;74.07;23.63;;;;;;;28.69;65.30;99134.06;4993596;28;20255;-87
2023/07/24 06:47:40;;;;;;;73.03;22.08;;;;;;;28.79;64.69;99129.13;4976609;28;20168;-87
2023/07/24 06:50:06;;;;;;;69.60;23.38;;;;;;;28.80;64.17;99128.09;4976733;28;20191;-87
2023/07/24 06:52:32;;;;;;;57.17;19.58;;;;;;;28.58;65.12;99126.47;4992848;28;20680;-87
2023/07/24 06:54:58;;;;;;;63.25;21.42;;;;;;;28.87;64.40;99125.47;4993821;28;20246;-87
2023/07/24 06:57:24;;;;;;;47.72;20.63;;;;;;;29.09;63.31;99127.03;4993796;28;20263;-87
2023/07/24 06:59:49;;;;;;;52.15;19.98;;;;;;;29.26;62.13;99125.72;4976656;28;20194;-87
2023/07/24 07:02:14;;;;;;;48.50;17.75;;;;;;;29.03;62.67;99119.75;4993739;28;20588;-87
2023/07/24 07:04:40;;;;;;;51.35;18.05;;;;;;;29.14;63.28;99125.41;4976663;28;20629;-87
2023/07/24 07:07:05;;;;;;;58.33;21.08;;;;;;;29.51;61.46;99120.63;4993757;28;20664;-87
2023/07/24 07:09:31;;;;;;;63.90;21.02;;;;;;;29.78;60.83;99117.84;4993703;28;20172;-87
2023/07/24 07:11:56;;;;;;;55.70;20.73;;;;;;;29.94;61.94;99113.09;4993633;28;20182;-87
2023/07/24 07:14:21;;;;;;;61.65;18.30;;;;;;;29.93;62.49;99119.56;4993525;28;20562;-87
2023/07/24 07:16:47;;;;;;;52.05;19.42;;;;;;;30.29;58.83;99114.63;4993649;28;20175;-88
2023/07/24 07:19:13;;;;;;;55.15;20.10;;;;;;;30.53;58.65;99108.59;4993918;28;20175;-87
2023/07/24 07:21:38;;;;;;;56.10;20.27;;;;;;;30.82;58.24;99116.28;4993891;28;20195;-87
2023/07/24 07:24:04;;;;;;;56.90;19.75;;;;;;;30.73;58.38;99104.03;4976250;28;20176;-87
2023/07/24 07:26:29;;;;;;;55.05;19.38;;;;;;;30.68;57.79;99101.13;4993836;28;20186;-87
2023/07/24 07:28:55;;;;;;;47.13;18.83;;;;;;;30.92;58.13;99091.53;4993297;28;20281;-88
2023/07/24 07:31:21;;;;;;;53.05;19.85;;;;;;;31.47;56.66;99090.13;4993773;28;20179;-87
2023/07/24 07:33:46;;;;;;;53.40;19.58;;;;;;;31.87;54.40;99083.44;4993983;28;20231;-87
2023/07/24 07:36:12;;;;;;;48.47;18.15;;;;;;;32.21;52.98;99091.16;4993711;28;20525;-88
2023/07/24 07:38:39;;;;;;;46.58;19.20;;;;;;;32.43;53.56;99086.19;4992393;28;20192;-88
2023/07/24 07:41:05;;;;;;;50.08;18.20;;;;;;;32.68;53.60;99092.44;4993995;28;20182;-88
2023/07/24 07:43:31;;;;;;;59.78;19.17;;;;;;;32.73;52.24;99087.19;4993488;28;20172;-88
2023/07/24 07:45:56;;;;;;;53.60;19.35;;;;;;;33.10;50.33;99096.22;4993658;28;20655;-88
2023/07/24 07:48:22;;;;;;;57.67;19.35;;;;;;;33.19;51.73;99092.16;4992341;28;20625;-87
2023/07/24 07:50:52;;;;;;;62.38;21.58;;;;;;;32.70;51.95;99090.38;4976095;28;20198;-88
2023/07/24 07:53:17;;;;;;;64.78;23.55;;;;;;;33.05;51.81;99077.06;4976402;28;20199;-88
2023/07/24 07:55:43;;;;;;;54.17;18.90;;;;;;;33.35;52.46;99080.69;4994662;28;20242;-88
2023/07/24 07:58:08;;;;;;;62.83;19.38;;;;;;;33.25;51.81;99083.13;4979505;28;20176;-88
2023/07/24 08:00:34;;;;;;;63.05;21.77;;;;;;;33.40;51.32;99083.56;4997072;28;20622;-89
2023/07/24 08:03:00;;;;;;;62.03;21.20;;;;;;;33.86;49.93;99082.09;4996835;28;20176;-88
2023/07/24 08:05:25;;;;;;;66.28;19.63;;;;;;;34.10;48.50;99077.59;4996813;28;20520;-88
2023/07/24 08:07:51;;;;;;;66.28;21.63;;;;;;;34.24;47.71;99070.88;4996695;28;20207;-88
2023/07/24 08:10:16;;;;;;;60.90;20.60;;;;;;;34.33;47.90;99073.03;4979438;28;20188;-89
2023/07/24 08:12:42;;;;;;;66.00;22.38;;;;;;;34.40;46.99;99067.50;4996780;28;20608;-88
2023/07/24 08:15:08;;;;;;;69.85;23.83;;;;;;;34.57;47.94;99069.28;4997100;28;20179;-88
2023/07/24 08:17:34;;;;;;;75.30;23.90;;;;;;;34.42;48.60;99063.47;4979251;28;20660;-88
2023/07/24 08:19:59;;;;;;;57.67;21.02;;;;;;;34.85;45.69;99067.75;4996694;28;20176;-88
2023/07/24 08:22:24;;;;;;;49.88;16.25;;;;;;;35.28;42.12;99062.72;4979180;28;20175;-88
2023/07/24 08:24:51;;;;;;;52.08;17.73;;;;;;;35.58;41.35;99060.66;4996667;28;20176;-88
2023/07/24 08:27:17;;;;;;;55.17;17.10;;;;;;;35.86;41.03;99056.22;4979125;28;20717;-88
2023/07/24 08:29:42;;;;;;;61.60;18.92;;;;;;;35.85;42.53;99055.41;4996470;28;20183;-88
2023/07/24 08:32:08;;;;;;;63.78;18.10;;;;;;;35.51;40.55;99048.19;4996240;28;20537;-89
2023/07/24 08:34:33;;;;;;;51.20;15.98;;;;;;;34.62;43.07;99059.59;4978889;28;20172;-88
2023/07/24 08:36:59;;;;;;;60.83;15.40;;;;;;;34.79;43.62;99047.75;4979011;28;20184;-88
2023/07/24 08:39:24;;;;;;;43.92;14.82;;;;;;;34.98;42.26;99041.09;4996132;28;20180;-88
2023/07/24 08:41:50;;;;;;;47.78;13.85;;;;;;;34.88;42.18;99043.56;4978822;28;20172;-87
2023/07/24 08:44:16;;;;;;;38.33;13.20;;;;;;;35.32;41.11;99042.09;4996338;28;20199;-88
2023/07/24 08:46:45;;;;;;;39.13;12.57;;;;;;;35.68;40.45;99033.56;4995864;28;20246;-88
2023/07/24 08:49:14;;;;;;;19.17;7.82;;;;;;;35.91;38.57;99026.31;4995938;28;20176;-88
2023/07/24 08:51:44;;;;;;;42.90;13.07;;;;;;;36.17;40.40;99031.97;4978750;28;20184;-88
2023/07/24 08:54:11;;;;;;;34.72;12.05;;;;;;;35.57;38.82;99031.72;4978795;28;20669;-88
2023/07/24 08:56:40;;;;;;;34.78;11.52;;;;;;;35.18;40.56;99029.81;4995809;28;20266;-88
2023/07/24 08:59:05;;;;;;;27.75;11.13;;;;;;;35.95;38.67;99019.28;4978605;28;20264;-87
2023/07/24 09:01:31;;;;;;;26.45;10.27;;;;;;;36.30;38.25;99026.19;4978514;28;20263;-88
2023/07/24 09:03:56;;;;;;;24.00;9.15;;;;;;;35.92;36.87;99022.50;4995589;28;20208;-88
2023/07/24 09:06:22;;;;;;;27.00;8.88;;;;;;;35.72;35.94;99020.25;4994880;28;20253;-88
2023/07/24 09:08:48;;;;;;;28.33;10.73;;;;;;;35.20;38.41;99019.50;4978279;28;20207;-88
2023/07/24 09:11:14;;;;;;;25.17;9.82;;;;;;;35.26;38.73;99012.25;4995553;28;20289;-88
2023/07/24 09:13:42;;;;;;;23.98;10.07;;;;;;;35.54;39.17;99010.38;4995655;28;20280;-88
2023/07/24 09:16:08;;;;;;;33.20;10.77;;;;;;;36.01;36.97;99010.16;4978256;28;20551;-88
2023/07/24 09:18:41;;;;;;;25.83;10.00;;;;;;;36.33;37.84;99012.03;4978306;28;20556;-89
2023/07/24 09:21:06;;;;;;;29.73;11.20;;;;;;;35.76;37.03;99002.31;4978413;28;20187;-89
2023/07/24 09:23:32;;;;;;;29.33;10.52;;;;;;;36.06;36.80;99005.59;4978297;28;20179;-88
2023/07/24 09:25:57;;;;;;;23.80;9.45;;;;;;;36.55;36.69;99001.22;4978992;28;20514;-88
2023/07/24 09:28:23;;;;;;;19.40;8.57;;;;;;;35.92;37.51;98995.22;4995119;28;20672;-88
2023/07/24 09:30:55;;;;;;;25.92;9.63;;;;;;;36.57;37.05;99003.69;4995167;28;20178;-88
2023/07/24 09:33:23;;;;;;;24.10;10.23;;;;;;;36.24;35.13;99004.53;4995026;28;20195;-89
2023/07/24 09:36:08;;;;;;;26.48;8.93;;;;;;;35.84;35.28;99001.09;4994650;28;20560;-88
2023/07/24 09:38:34;;;;;;;23.58;8.95;;;;;;;35.83;34.67;98985.78;4995581;28;20160;-88
2023/07/24 09:41:02;;;;;;;21.70;7.45;;;;;;;36.34;32.73;98993.75;4994208;28;20266;-88
2023/07/24 09:43:28;;;;;;;23.88;7.53;;;;;;;36.61;32.69;98992.00;4993976;28;20241;-89
2023/07/24 09:45:54;;;;;;;19.95;7.30;;;;;;;37.04;32.69;98982.19;4994050;28;20263;-88
2023/07/24 09:48:22;;;;;;;21.67;7.72;;;;;;;37.29;33.02;98979.78;4994808;28;20176;-89
2023/07/24 09:50:49;;;;;;;13.75;5.32;;;;;;;37.52;30.98;98979.50;4994750;28;20182;-88
2023/07/24 09:53:20;;;;;;;15.30;5.85;;;;;;;37.79;29.28;98974.81;4977796;28;20203;-90
2023/07/24 09:55:56;;;;;;;20.13;7.20;;;;;;;38.13;29.82;98973.50;4994895;28;20187;-88
2023/07/24 09:58:24;;;;;;;18.92;7.10;;;;;;;38.27;29.09;98964.81;4993865;28;20167;-89
2023/07/24 10:00:50;;;;;;;15.65;5.93;;;;;;;38.45;30.08;98961.69;4995617;28;20218;-88
2023/07/24 10:03:16;;;;;;;19.67;7.68;;;;;;;38.51;30.72;98952.41;4994175;28;20596;-88
2023/07/24 10:05:45;;;;;;;17.77;6.85;;;;;;;38.44;27.81;98952.66;4977593;28;20664;-89
2023/07/24 10:08:11;;;;;;;12.40;4.63;;;;;;;38.48;26.84;98947.47;4993489;28;20190;-88
2023/07/24 10:10:38;;;;;;;20.85;6.30;;;;;;;38.56;27.70;98947.78;4994262;28;20668;-88
2023/07/24 10:13:05;;;;;;;19.63;7.60;;;;;;;38.86;28.53;98936.19;4994196;28;20195;-89
2023/07/24 10:15:31;;;;;;;12.65;5.88;;;;;;;38.78;27.90;98942.19;4994201;28;20179;-88
2023/07/24 10:18:05;;;;;;;20.25;7.38;;;;;;;39.07;28.41;98926.09;4993557;28;20178;-90
2023/07/24 10:20:39;;;;;;;20.52;5.68;;;;;;;39.10;28.57;98929.13;4977346;28;20175;-89
2023/07/24 10:23:06;;;;;;;18.83;6.53;;;;;;;39.28;28.33;98938.81;4994514;28;20605;-89
2023/07/24 10:25:34;;;;;;;19.27;5.97;;;;;;;38.86;26.56;98938.09;4994174;28;20187;-88
2023/07/24 10:28:07;;;;;;;13.77;5.70;;;;;;;38.54;28.33;98922.59;4993915;28;20191;-88
2023/07/24 10:30:34;;;;;;;17.92;6.97;;;;;;;38.87;27.19;98926.84;4994266;28;20176;-88
2023/07/24 10:33:17;;;;;;;22.27;6.82;;;;;;;39.05;27.31;98918.13;4993817;28;20210;-89
2023/07/24 10:35:51;;;;;;;18.58;5.55;;;;;;;39.04;27.60;98916.50;4994329;28;20251;-88
2023/07/24 10:38:17;;;;;;;18.00;5.72;;;;;;;39.18;27.19;98916.78;4994063;28;20198;-88
2023/07/24 10:40:44;;;;;;;23.55;7.35;;;;;;;39.41;26.92;98910.03;4993212;28;20381;-88
2023/07/24 10:43:18;;;;;;;21.35;6.93;;;;;;;39.46;26.14;98910.84;4992989;28;20175;-89
2023/07/24 10:45:53;;;;;;;21.95;7.28;;;;;;;39.50;25.79;98908.38;4977418;28;20238;-88
2023/07/24 10:48:20;;;;;;;19.65;5.78;;;;;;;39.69;25.61;98901.28;4976861;28;20194;-88
2023/07/24 10:50:48;;;;;;;19.45;7.13;;;;;;;39.81;25.65;98897.16;4976718;28;20184;-88
2023/07/24 10:53:19;;;;;;;16.48;6.13;;;;;;;40.01;25.27;98893.56;4993126;28;20724;-88
2023/07/24 10:55:47;;;;;;;23.30;6.35;;;;;;;39.65;23.79;98889.22;4976481;28;20681;-88
2023/07/24 10:58:13;;;;;;;21.98;6.70;;;;;;;39.23;25.47;98887.50;4994031;28;20622;-88
2023/07/24 11:00:45;;;;;;;16.23;5.93;;;;;;;39.54;25.14;98888.38;4976677;28;20237;-88
2023/07/24 11:03:12;;;;;;;16.75;6.38;;;;;;;40.07;24.01;98883.44;4993917;28;20688;-88
2023/07/24 11:05:42;;;;;;;19.45;5.97;;;;;;;40.06;23.67;98874.38;4993719;28;20645;-88
2023/07/24 11:08:13;;;;;;;17.63;5.63;;;;;;;39.73;24.09;98880.44;4976489;28;20187;-88
2023/07/24 11:10:48;;;;;;;17.05;5.75;;;;;;;40.07;24.48;98875.19;4993876;28;20166;-88
2023/07/24 11:13:14;;;;;;;18.80;6.13;;;;;;;39.85;24.37;98868.06;4976522;28;20201;-89